sensor_id;sensor_type;location;lat;lon;timestamp;P1;durP1;ratioP1;P2;durP2;ratioP2
10645;SDS011;5371;49.782;9.932;2022-11-15T00:01:24;7.57;;;5.80;;
10645;SDS011;5371;49.782;9.932;2022-11-15T00:04:10;8.77;;;5.67;;
10645;SDS011;5371;49.782;9.932;2022-11-15T00:06:58;10.00;;;5.17;;
10645;SDS011;5371;49.782;9.932;2022-11-15T00:09:44;7.33;;;5.17;;
10645;SDS011;5371;49.782;9.932;2022-11-15T00:12:29;6.90;;;5.20;;
10645;SDS011;5371;49.782;9.932;2022-11-15T00:15:15;9.30;;;5.20;;
10645;SDS011;5371;49.782;9.932;2022-11-15T00:18:02;7.97;;;5.57;;
10645;SDS011;5371;49.782;9.932;2022-11-15T00:20:47;8.17;;;5.70;;
10645;SDS011;5371;49.782;9.932;2022-11-15T00:23:33;6.17;;;4.87;;
10645;SDS011;5371;49.782;9.932;2022-11-15T00:26:19;8.00;;;5.17;;
10645;SDS011;5371;49.782;9.932;2022-11-15T00:29:04;8.20;;;5.60;;
10645;SDS011;5371;49.782;9.932;2022-11-15T00:31:50;7.30;;;5.40;;
10645;SDS011;5371;49.782;9.932;2022-11-15T00:34:36;9.80;;;5.77;;
10645;SDS011;5371;49.782;9.932;2022-11-15T00:37:22;8.20;;;5.33;;
10645;SDS011;5371;49.782;9.932;2022-11-15T00:40:08;10.60;;;6.60;;
10645;SDS011;5371;49.782;9.932;2022-11-15T00:42:54;9.37;;;6.27;;
10645;SDS011;5371;49.782;9.932;2022-11-15T00:45:40;9.63;;;6.40;;
10645;SDS011;5371;49.782;9.932;2022-11-15T00:48:25;10.20;;;6.60;;
10645;SDS011;5371;49.782;9.932;2022-11-15T00:51:12;8.67;;;5.80;;
10645;SDS011;5371;49.782;9.932;2022-11-15T00:53:57;7.47;;;5.73;;
10645;SDS011;5371;49.782;9.932;2022-11-15T00:56:46;6.90;;;5.40;;
10645;SDS011;5371;49.782;9.932;2022-11-15T00:59:31;8.63;;;5.83;;
10645;SDS011;5371;49.782;9.932;2022-11-15T01:02:16;8.90;;;5.90;;
10645;SDS011;5371;49.782;9.932;2022-11-15T01:05:02;10.20;;;6.40;;
10645;SDS011;5371;49.782;9.932;2022-11-15T01:07:52;8.10;;;6.23;;
10645;SDS011;5371;49.782;9.932;2022-11-15T01:10:37;8.30;;;5.60;;
10645;SDS011;5371;49.782;9.932;2022-11-15T01:13:23;8.77;;;5.90;;
10645;SDS011;5371;49.782;9.932;2022-11-15T01:16:08;7.33;;;5.13;;
10645;SDS011;5371;49.782;9.932;2022-11-15T01:18:55;8.07;;;5.73;;
10645;SDS011;5371;49.782;9.932;2022-11-15T01:21:41;8.87;;;5.77;;
10645;SDS011;5371;49.782;9.932;2022-11-15T01:24:28;8.60;;;5.63;;
10645;SDS011;5371;49.782;9.932;2022-11-15T01:27:13;7.07;;;5.40;;
10645;SDS011;5371;49.782;9.932;2022-11-15T01:29:58;9.30;;;5.77;;
10645;SDS011;5371;49.782;9.932;2022-11-15T01:32:44;9.17;;;5.93;;
10645;SDS011;5371;49.782;9.932;2022-11-15T01:35:29;8.57;;;5.80;;
10645;SDS011;5371;49.782;9.932;2022-11-15T01:38:14;8.50;;;5.90;;
10645;SDS011;5371;49.782;9.932;2022-11-15T01:41:02;8.83;;;6.20;;
10645;SDS011;5371;49.782;9.932;2022-11-15T01:43:48;11.93;;;6.03;;
10645;SDS011;5371;49.782;9.932;2022-11-15T01:46:36;9.50;;;6.37;;
10645;SDS011;5371;49.782;9.932;2022-11-15T01:49:23;9.10;;;6.63;;
10645;SDS011;5371;49.782;9.932;2022-11-15T01:52:12;11.87;;;6.23;;
10645;SDS011;5371;49.782;9.932;2022-11-15T01:55:03;9.27;;;6.43;;
10645;SDS011;5371;49.782;9.932;2022-11-15T01:57:54;7.77;;;6.00;;
10645;SDS011;5371;49.782;9.932;2022-11-15T02:00:43;9.50;;;6.50;;
10645;SDS011;5371;49.782;9.932;2022-11-15T02:03:31;11.83;;;6.37;;
10645;SDS011;5371;49.782;9.932;2022-11-15T02:06:21;11.10;;;6.47;;
10645;SDS011;5371;49.782;9.932;2022-11-15T02:09:07;10.70;;;6.40;;
10645;SDS011;5371;49.782;9.932;2022-11-15T02:11:53;10.03;;;6.37;;
10645;SDS011;5371;49.782;9.932;2022-11-15T02:14:42;9.93;;;6.63;;
10645;SDS011;5371;49.782;9.932;2022-11-15T02:17:46;10.40;;;6.13;;
10645;SDS011;5371;49.782;9.932;2022-11-15T02:30:30;9.90;;;6.70;;
10645;SDS011;5371;49.782;9.932;2022-11-15T02:33:26;9.90;;;6.90;;
10645;SDS011;5371;49.782;9.932;2022-11-15T02:36:23;10.37;;;7.03;;
10645;SDS011;5371;49.782;9.932;2022-11-15T02:39:20;9.40;;;6.10;;
10645;SDS011;5371;49.782;9.932;2022-11-15T02:42:11;8.47;;;6.77;;
10645;SDS011;5371;49.782;9.932;2022-11-15T02:45:21;7.67;;;6.30;;
10645;SDS011;5371;49.782;9.932;2022-11-15T02:48:13;10.20;;;7.03;;
10645;SDS011;5371;49.782;9.932;2022-11-15T02:51:00;7.97;;;6.53;;
10645;SDS011;5371;49.782;9.932;2022-11-15T02:53:46;10.30;;;6.67;;
10645;SDS011;5371;49.782;9.932;2022-11-15T02:56:31;9.43;;;6.33;;
10645;SDS011;5371;49.782;9.932;2022-11-15T02:59:20;9.63;;;7.07;;
10645;SDS011;5371;49.782;9.932;2022-11-15T03:02:18;8.17;;;6.70;;
10645;SDS011;5371;49.782;9.932;2022-11-15T03:05:17;10.07;;;7.23;;
10645;SDS011;5371;49.782;9.932;2022-11-15T03:08:10;9.80;;;6.90;;
10645;SDS011;5371;49.782;9.932;2022-11-15T03:11:03;10.00;;;6.70;;
10645;SDS011;5371;49.782;9.932;2022-11-15T03:13:55;9.33;;;6.90;;
10645;SDS011;5371;49.782;9.932;2022-11-15T03:16:44;8.63;;;6.90;;
10645;SDS011;5371;49.782;9.932;2022-11-15T03:19:34;10.10;;;7.07;;
10645;SDS011;5371;49.782;9.932;2022-11-15T03:22:27;10.87;;;6.83;;
10645;SDS011;5371;49.782;9.932;2022-11-15T03:25:18;9.73;;;6.90;;
10645;SDS011;5371;49.782;9.932;2022-11-15T03:28:08;9.40;;;6.60;;
10645;SDS011;5371;49.782;9.932;2022-11-15T03:30:57;9.63;;;6.80;;
10645;SDS011;5371;49.782;9.932;2022-11-15T03:34:06;9.53;;;6.87;;
10645;SDS011;5371;49.782;9.932;2022-11-15T03:36:54;9.17;;;6.97;;
10645;SDS011;5371;49.782;9.932;2022-11-15T03:39:42;11.27;;;6.93;;
10645;SDS011;5371;49.782;9.932;2022-11-15T03:42:29;9.77;;;6.17;;
10645;SDS011;5371;49.782;9.932;2022-11-15T03:45:19;9.13;;;6.50;;
10645;SDS011;5371;49.782;9.932;2022-11-15T03:48:10;10.87;;;6.53;;
10645;SDS011;5371;49.782;9.932;2022-11-15T03:50:58;10.47;;;6.87;;
10645;SDS011;5371;49.782;9.932;2022-11-15T03:53:44;7.73;;;5.97;;
10645;SDS011;5371;49.782;9.932;2022-11-15T03:56:32;9.23;;;5.90;;
10645;SDS011;5371;49.782;9.932;2022-11-15T03:59:17;8.20;;;5.33;;
10645;SDS011;5371;49.782;9.932;2022-11-15T04:02:03;11.03;;;6.47;;
10645;SDS011;5371;49.782;9.932;2022-11-15T04:04:48;9.53;;;6.70;;
10645;SDS011;5371;49.782;9.932;2022-11-15T04:07:33;8.67;;;6.20;;
10645;SDS011;5371;49.782;9.932;2022-11-15T04:10:18;9.57;;;6.30;;
10645;SDS011;5371;49.782;9.932;2022-11-15T04:13:05;9.00;;;6.33;;
10645;SDS011;5371;49.782;9.932;2022-11-15T04:15:51;10.27;;;6.23;;
10645;SDS011;5371;49.782;9.932;2022-11-15T04:18:36;8.30;;;6.30;;
10645;SDS011;5371;49.782;9.932;2022-11-15T04:21:22;11.77;;;6.93;;
10645;SDS011;5371;49.782;9.932;2022-11-15T04:24:26;8.73;;;6.50;;
10645;SDS011;5371;49.782;9.932;2022-11-15T04:27:11;8.67;;;6.67;;
10645;SDS011;5371;49.782;9.932;2022-11-15T04:29:59;8.43;;;6.20;;
10645;SDS011;5371;49.782;9.932;2022-11-15T04:32:44;8.47;;;6.10;;
10645;SDS011;5371;49.782;9.932;2022-11-15T04:35:29;6.83;;;5.73;;
10645;SDS011;5371;49.782;9.932;2022-11-15T04:38:15;9.23;;;6.60;;
10645;SDS011;5371;49.782;9.932;2022-11-15T04:41:00;11.03;;;6.77;;
10645;SDS011;5371;49.782;9.932;2022-11-15T04:43:46;11.00;;;6.10;;
10645;SDS011;5371;49.782;9.932;2022-11-15T04:46:33;11.83;;;6.93;;
10645;SDS011;5371;49.782;9.932;2022-11-15T04:49:18;12.53;;;6.50;;
10645;SDS011;5371;49.782;9.932;2022-11-15T04:52:03;8.80;;;6.87;;
10645;SDS011;5371;49.782;9.932;2022-11-15T04:54:49;11.63;;;7.13;;
10645;SDS011;5371;49.782;9.932;2022-11-15T04:57:34;10.07;;;7.10;;
10645;SDS011;5371;49.782;9.932;2022-11-15T05:00:20;11.50;;;6.93;;
10645;SDS011;5371;49.782;9.932;2022-11-15T05:03:08;13.77;;;7.40;;
10645;SDS011;5371;49.782;9.932;2022-11-15T05:06:12;8.53;;;6.33;;
10645;SDS011;5371;49.782;9.932;2022-11-15T05:08:58;10.33;;;6.87;;
10645;SDS011;5371;49.782;9.932;2022-11-15T05:11:43;13.00;;;6.77;;
10645;SDS011;5371;49.782;9.932;2022-11-15T05:14:29;8.73;;;6.73;;
10645;SDS011;5371;49.782;9.932;2022-11-15T05:17:14;10.13;;;7.10;;
10645;SDS011;5371;49.782;9.932;2022-11-15T05:20:01;13.13;;;6.33;;
10645;SDS011;5371;49.782;9.932;2022-11-15T05:22:46;9.83;;;6.70;;
10645;SDS011;5371;49.782;9.932;2022-11-15T05:25:32;9.00;;;6.97;;
10645;SDS011;5371;49.782;9.932;2022-11-15T05:28:17;11.10;;;7.13;;
10645;SDS011;5371;49.782;9.932;2022-11-15T05:31:04;9.67;;;6.77;;
10645;SDS011;5371;49.782;9.932;2022-11-15T05:33:53;10.73;;;6.60;;
10645;SDS011;5371;49.782;9.932;2022-11-15T05:36:42;9.37;;;6.97;;
10645;SDS011;5371;49.782;9.932;2022-11-15T05:39:29;9.30;;;6.53;;
10645;SDS011;5371;49.782;9.932;2022-11-15T05:42:15;9.27;;;6.10;;
10645;SDS011;5371;49.782;9.932;2022-11-15T05:45:01;10.93;;;7.00;;
10645;SDS011;5371;49.782;9.932;2022-11-15T05:47:50;9.37;;;6.60;;
10645;SDS011;5371;49.782;9.932;2022-11-15T05:50:38;9.50;;;6.97;;
10645;SDS011;5371;49.782;9.932;2022-11-15T05:53:29;8.67;;;6.47;;
10645;SDS011;5371;49.782;9.932;2022-11-15T05:56:15;10.63;;;7.33;;
10645;SDS011;5371;49.782;9.932;2022-11-15T05:59:01;9.80;;;7.70;;
10645;SDS011;5371;49.782;9.932;2022-11-15T06:01:46;12.37;;;7.70;;
10645;SDS011;5371;49.782;9.932;2022-11-15T06:04:32;11.50;;;6.80;;
10645;SDS011;5371;49.782;9.932;2022-11-15T06:07:18;10.43;;;7.00;;
10645;SDS011;5371;49.782;9.932;2022-11-15T06:10:06;10.83;;;6.97;;
10645;SDS011;5371;49.782;9.932;2022-11-15T06:12:56;9.07;;;6.13;;
10645;SDS011;5371;49.782;9.932;2022-11-15T06:15:42;8.90;;;6.30;;
10645;SDS011;5371;49.782;9.932;2022-11-15T06:18:27;9.07;;;6.10;;
10645;SDS011;5371;49.782;9.932;2022-11-15T06:21:13;10.37;;;6.00;;
10645;SDS011;5371;49.782;9.932;2022-11-15T06:23:58;10.87;;;6.53;;
10645;SDS011;5371;49.782;9.932;2022-11-15T06:26:45;12.67;;;7.37;;
10645;SDS011;5371;49.782;9.932;2022-11-15T06:29:31;19.20;;;6.80;;
10645;SDS011;5371;49.782;9.932;2022-11-15T06:32:16;10.43;;;6.53;;
10645;SDS011;5371;49.782;9.932;2022-11-15T06:35:01;11.13;;;6.47;;
10645;SDS011;5371;49.782;9.932;2022-11-15T06:37:47;9.27;;;6.43;;
10645;SDS011;5371;49.782;9.932;2022-11-15T06:40:33;7.40;;;5.73;;
10645;SDS011;5371;49.782;9.932;2022-11-15T06:43:20;10.47;;;5.47;;
10645;SDS011;5371;49.782;9.932;2022-11-15T06:46:06;9.17;;;5.30;;
10645;SDS011;5371;49.782;9.932;2022-11-15T06:48:53;11.30;;;6.17;;
10645;SDS011;5371;49.782;9.932;2022-11-15T06:51:38;10.17;;;6.27;;
10645;SDS011;5371;49.782;9.932;2022-11-15T06:54:24;12.63;;;6.40;;
10645;SDS011;5371;49.782;9.932;2022-11-15T06:57:09;12.40;;;6.87;;
10645;SDS011;5371;49.782;9.932;2022-11-15T06:59:56;11.40;;;6.87;;
10645;SDS011;5371;49.782;9.932;2022-11-15T07:02:41;11.70;;;7.17;;
10645;SDS011;5371;49.782;9.932;2022-11-15T07:05:26;8.90;;;6.53;;
10645;SDS011;5371;49.782;9.932;2022-11-15T07:08:11;18.57;;;8.27;;
10645;SDS011;5371;49.782;9.932;2022-11-15T07:10:57;11.10;;;7.57;;
10645;SDS011;5371;49.782;9.932;2022-11-15T07:13:43;13.17;;;7.80;;
10645;SDS011;5371;49.782;9.932;2022-11-15T07:16:30;16.07;;;7.97;;
10645;SDS011;5371;49.782;9.932;2022-11-15T07:19:15;11.73;;;7.17;;
10645;SDS011;5371;49.782;9.932;2022-11-15T07:22:01;20.60;;;12.90;;
10645;SDS011;5371;49.782;9.932;2022-11-15T07:24:46;12.43;;;7.40;;
10645;SDS011;5371;49.782;9.932;2022-11-15T07:27:32;16.90;;;8.00;;
10645;SDS011;5371;49.782;9.932;2022-11-15T07:30:17;13.53;;;7.13;;
10645;SDS011;5371;49.782;9.932;2022-11-15T07:33:04;12.07;;;7.60;;
10645;SDS011;5371;49.782;9.932;2022-11-15T07:35:49;13.13;;;7.67;;
10645;SDS011;5371;49.782;9.932;2022-11-15T07:38:35;12.47;;;7.50;;
10645;SDS011;5371;49.782;9.932;2022-11-15T07:41:20;14.83;;;7.67;;
10645;SDS011;5371;49.782;9.932;2022-11-15T07:44:06;15.67;;;7.87;;
10645;SDS011;5371;49.782;9.932;2022-11-15T07:46:51;10.33;;;7.13;;
10645;SDS011;5371;49.782;9.932;2022-11-15T07:49:38;11.87;;;7.10;;
10645;SDS011;5371;49.782;9.932;2022-11-15T07:52:24;11.07;;;7.27;;
10645;SDS011;5371;49.782;9.932;2022-11-15T07:55:09;10.37;;;7.87;;
10645;SDS011;5371;49.782;9.932;2022-11-15T07:57:59;13.07;;;7.43;;
10645;SDS011;5371;49.782;9.932;2022-11-15T08:00:45;9.07;;;6.60;;
10645;SDS011;5371;49.782;9.932;2022-11-15T08:03:31;12.00;;;7.50;;
10645;SDS011;5371;49.782;9.932;2022-11-15T08:06:18;10.83;;;6.90;;
10645;SDS011;5371;49.782;9.932;2022-11-15T08:09:04;9.73;;;7.13;;
10645;SDS011;5371;49.782;9.932;2022-11-15T08:11:50;12.33;;;7.10;;
10645;SDS011;5371;49.782;9.932;2022-11-15T08:14:35;11.07;;;6.50;;
10645;SDS011;5371;49.782;9.932;2022-11-15T08:17:20;9.03;;;6.60;;
10645;SDS011;5371;49.782;9.932;2022-11-15T08:20:06;10.37;;;6.10;;
10645;SDS011;5371;49.782;9.932;2022-11-15T08:22:57;11.63;;;6.50;;
10645;SDS011;5371;49.782;9.932;2022-11-15T08:25:43;9.15;;;6.25;;
10645;SDS011;5371;49.782;9.932;2022-11-15T08:28:28;12.32;;;6.57;;
10645;SDS011;5371;49.782;9.932;2022-11-15T08:31:15;11.77;;;6.72;;
10645;SDS011;5371;49.782;9.932;2022-11-15T08:34:03;9.88;;;6.22;;
10645;SDS011;5371;49.782;9.932;2022-11-15T08:36:49;13.82;;;6.70;;
10645;SDS011;5371;49.782;9.932;2022-11-15T08:39:35;12.60;;;6.75;;
10645;SDS011;5371;49.782;9.932;2022-11-15T08:42:21;13.57;;;6.55;;
10645;SDS011;5371;49.782;9.932;2022-11-15T08:45:07;10.15;;;7.10;;
10645;SDS011;5371;49.782;9.932;2022-11-15T08:47:53;14.88;;;7.47;;
10645;SDS011;5371;49.782;9.932;2022-11-15T08:50:39;10.85;;;6.72;;
10645;SDS011;5371;49.782;9.932;2022-11-15T08:53:24;13.15;;;7.78;;
10645;SDS011;5371;49.782;9.932;2022-11-15T08:56:11;11.23;;;7.45;;
10645;SDS011;5371;49.782;9.932;2022-11-15T08:58:58;11.25;;;7.05;;
10645;SDS011;5371;49.782;9.932;2022-11-15T09:01:44;16.27;;;7.97;;
10645;SDS011;5371;49.782;9.932;2022-11-15T09:04:29;14.73;;;7.45;;
10645;SDS011;5371;49.782;9.932;2022-11-15T09:07:16;11.45;;;6.80;;
10645;SDS011;5371;49.782;9.932;2022-11-15T09:10:01;11.30;;;6.60;;
10645;SDS011;5371;49.782;9.932;2022-11-15T09:12:48;10.27;;;6.78;;
10645;SDS011;5371;49.782;9.932;2022-11-15T09:15:34;10.15;;;6.63;;
10645;SDS011;5371;49.782;9.932;2022-11-15T09:18:20;14.40;;;6.68;;
10645;SDS011;5371;49.782;9.932;2022-11-15T09:21:06;11.73;;;6.13;;
10645;SDS011;5371;49.782;9.932;2022-11-15T09:23:52;15.13;;;7.13;;
10645;SDS011;5371;49.782;9.932;2022-11-15T09:26:38;12.20;;;6.78;;
10645;SDS011;5371;49.782;9.932;2022-11-15T09:29:25;12.32;;;6.90;;
10645;SDS011;5371;49.782;9.932;2022-11-15T09:32:11;10.55;;;5.80;;
10645;SDS011;5371;49.782;9.932;2022-11-15T09:34:57;11.40;;;6.47;;
10645;SDS011;5371;49.782;9.932;2022-11-15T09:37:42;13.27;;;6.75;;
10645;SDS011;5371;49.782;9.932;2022-11-15T09:40:29;11.43;;;6.72;;
10645;SDS011;5371;49.782;9.932;2022-11-15T09:46:21;10.50;;;6.85;;
10645;SDS011;5371;49.782;9.932;2022-11-15T09:49:26;15.25;;;6.60;;
10645;SDS011;5371;49.782;9.932;2022-11-15T09:52:01;15.10;;;6.63;;
10645;SDS011;5371;49.782;9.932;2022-11-15T09:54:30;10.68;;;6.00;;
10645;SDS011;5371;49.782;9.932;2022-11-15T09:57:02;14.85;;;6.50;;
10645;SDS011;5371;49.782;9.932;2022-11-15T09:59:37;13.90;;;6.68;;
10645;SDS011;5371;49.782;9.932;2022-11-15T10:02:19;9.38;;;6.07;;
10645;SDS011;5371;49.782;9.932;2022-11-15T10:05:06;12.63;;;6.90;;
10645;SDS011;5371;49.782;9.932;2022-11-15T10:07:37;11.02;;;6.65;;
10645;SDS011;5371;49.782;9.932;2022-11-15T10:10:13;13.48;;;5.93;;
10645;SDS011;5371;49.782;9.932;2022-11-15T10:12:47;9.10;;;6.53;;
10645;SDS011;5371;49.782;9.932;2022-11-15T10:15:18;8.35;;;5.88;;
10645;SDS011;5371;49.782;9.932;2022-11-15T10:18:06;12.55;;;5.60;;
10645;SDS011;5371;49.782;9.932;2022-11-15T10:20:42;8.02;;;5.28;;
10645;SDS011;5371;49.782;9.932;2022-11-15T10:23:14;8.50;;;5.60;;
10645;SDS011;5371;49.782;9.932;2022-11-15T10:25:43;8.60;;;5.63;;
10645;SDS011;5371;49.782;9.932;2022-11-15T10:28:12;8.73;;;6.05;;
10645;SDS011;5371;49.782;9.932;2022-11-15T10:30:42;8.48;;;5.65;;
10645;SDS011;5371;49.782;9.932;2022-11-15T10:33:13;14.60;;;6.15;;
10645;SDS011;5371;49.782;9.932;2022-11-15T10:35:47;10.23;;;5.88;;
10645;SDS011;5371;49.782;9.932;2022-11-15T10:38:13;6.78;;;5.60;;
10645;SDS011;5371;49.782;9.932;2022-11-15T10:40:41;10.02;;;5.82;;
10645;SDS011;5371;49.782;9.932;2022-11-15T10:43:16;9.93;;;5.88;;
10645;SDS011;5371;49.782;9.932;2022-11-15T10:45:45;6.30;;;5.10;;
10645;SDS011;5371;49.782;9.932;2022-11-15T10:51:02;9.68;;;5.60;;
10645;SDS011;5371;49.782;9.932;2022-11-15T10:53:47;9.85;;;5.90;;
10645;SDS011;5371;49.782;9.932;2022-11-15T10:56:15;8.52;;;5.95;;
10645;SDS011;5371;49.782;9.932;2022-11-15T10:58:50;7.88;;;5.47;;
10645;SDS011;5371;49.782;9.932;2022-11-15T11:01:21;8.50;;;5.80;;
10645;SDS011;5371;49.782;9.932;2022-11-15T11:03:59;8.98;;;6.18;;
10645;SDS011;5371;49.782;9.932;2022-11-15T11:06:27;9.35;;;6.00;;
10645;SDS011;5371;49.782;9.932;2022-11-15T11:08:56;10.90;;;6.70;;
10645;SDS011;5371;49.782;9.932;2022-11-15T11:11:25;8.30;;;5.70;;
10645;SDS011;5371;49.782;9.932;2022-11-15T11:14:11;8.23;;;5.68;;
10645;SDS011;5371;49.782;9.932;2022-11-15T11:16:43;9.55;;;6.07;;
10645;SDS011;5371;49.782;9.932;2022-11-15T11:19:35;10.07;;;6.88;;
10645;SDS011;5371;49.782;9.932;2022-11-15T11:22:15;6.60;;;5.32;;
10645;SDS011;5371;49.782;9.932;2022-11-15T11:24:48;9.27;;;5.30;;
10645;SDS011;5371;49.782;9.932;2022-11-15T11:27:29;7.50;;;5.65;;
10645;SDS011;5371;49.782;9.932;2022-11-15T11:30:09;10.70;;;5.80;;
10645;SDS011;5371;49.782;9.932;2022-11-15T11:35:37;9.05;;;5.85;;
10645;SDS011;5371;49.782;9.932;2022-11-15T11:38:17;9.13;;;5.25;;
10645;SDS011;5371;49.782;9.932;2022-11-15T11:40:59;10.27;;;5.35;;
10645;SDS011;5371;49.782;9.932;2022-11-15T11:43:32;6.68;;;5.15;;
10645;SDS011;5371;49.782;9.932;2022-11-15T11:48:57;8.32;;;5.40;;
10645;SDS011;5371;49.782;9.932;2022-11-15T11:51:32;8.27;;;5.50;;
10645;SDS011;5371;49.782;9.932;2022-11-15T11:54:09;8.98;;;5.65;;
10645;SDS011;5371;49.782;9.932;2022-11-15T11:56:39;7.72;;;5.38;;
10645;SDS011;5371;49.782;9.932;2022-11-15T11:59:12;9.85;;;5.38;;
10645;SDS011;5371;49.782;9.932;2022-11-15T12:01:47;8.65;;;5.55;;
10645;SDS011;5371;49.782;9.932;2022-11-15T12:04:16;7.30;;;5.75;;
10645;SDS011;5371;49.782;9.932;2022-11-15T12:06:50;8.10;;;5.30;;
10645;SDS011;5371;49.782;9.932;2022-11-15T12:09:24;8.73;;;5.20;;
10645;SDS011;5371;49.782;9.932;2022-11-15T12:11:59;8.77;;;5.45;;
10645;SDS011;5371;49.782;9.932;2022-11-15T12:14:36;9.30;;;5.78;;
10645;SDS011;5371;49.782;9.932;2022-11-15T12:17:09;8.95;;;5.95;;
10645;SDS011;5371;49.782;9.932;2022-11-15T12:19:38;8.85;;;5.55;;
10645;SDS011;5371;49.782;9.932;2022-11-15T12:22:10;9.45;;;5.35;;
10645;SDS011;5371;49.782;9.932;2022-11-15T12:24:47;6.50;;;5.43;;
10645;SDS011;5371;49.782;9.932;2022-11-15T12:27:19;8.43;;;5.05;;
10645;SDS011;5371;49.782;9.932;2022-11-15T12:29:53;8.43;;;5.30;;
10645;SDS011;5371;49.782;9.932;2022-11-15T12:32:25;9.15;;;5.45;;
10645;SDS011;5371;49.782;9.932;2022-11-15T12:34:55;8.02;;;4.95;;
10645;SDS011;5371;49.782;9.932;2022-11-15T12:40:35;8.98;;;5.78;;
10645;SDS011;5371;49.782;9.932;2022-11-15T12:46:10;9.00;;;5.72;;
10645;SDS011;5371;49.782;9.932;2022-11-15T12:48:46;9.70;;;5.53;;
10645;SDS011;5371;49.782;9.932;2022-11-15T12:51:21;11.65;;;6.03;;
10645;SDS011;5371;49.782;9.932;2022-11-15T13:03:16;6.63;;;4.93;;
10645;SDS011;5371;49.782;9.932;2022-11-15T13:08:56;7.75;;;5.05;;
10645;SDS011;5371;49.782;9.932;2022-11-15T13:17:16;9.30;;;4.70;;
10645;SDS011;5371;49.782;9.932;2022-11-15T13:19:52;10.85;;;4.95;;
10645;SDS011;5371;49.782;9.932;2022-11-15T13:22:25;10.32;;;5.13;;
10645;SDS011;5371;49.782;9.932;2022-11-15T13:25:14;10.73;;;5.00;;
10645;SDS011;5371;49.782;9.932;2022-11-15T13:27:44;11.02;;;5.07;;
10645;SDS011;5371;49.782;9.932;2022-11-15T13:30:16;10.20;;;4.72;;
10645;SDS011;5371;49.782;9.932;2022-11-15T13:32:47;13.27;;;5.60;;
10645;SDS011;5371;49.782;9.932;2022-11-15T13:35:18;9.73;;;5.32;;
10645;SDS011;5371;49.782;9.932;2022-11-15T13:37:48;10.98;;;5.47;;
10645;SDS011;5371;49.782;9.932;2022-11-15T13:40:18;8.70;;;5.10;;
10645;SDS011;5371;49.782;9.932;2022-11-15T13:42:48;6.55;;;5.03;;
10645;SDS011;5371;49.782;9.932;2022-11-15T13:45:17;11.75;;;5.07;;
10645;SDS011;5371;49.782;9.932;2022-11-15T13:47:53;10.18;;;4.97;;
10645;SDS011;5371;49.782;9.932;2022-11-15T13:50:25;9.32;;;5.18;;
10645;SDS011;5371;49.782;9.932;2022-11-15T13:52:56;9.52;;;5.25;;
10645;SDS011;5371;49.782;9.932;2022-11-15T13:55:25;11.25;;;5.43;;
10645;SDS011;5371;49.782;9.932;2022-11-15T13:57:56;11.10;;;5.10;;
10645;SDS011;5371;49.782;9.932;2022-11-15T14:00:29;6.53;;;5.40;;
10645;SDS011;5371;49.782;9.932;2022-11-15T14:03:05;8.63;;;5.22;;
10645;SDS011;5371;49.782;9.932;2022-11-15T14:05:34;7.72;;;5.18;;
10645;SDS011;5371;49.782;9.932;2022-11-15T14:08:03;8.25;;;5.72;;
10645;SDS011;5371;49.782;9.932;2022-11-15T14:10:39;9.57;;;5.55;;
10645;SDS011;5371;49.782;9.932;2022-11-15T14:13:09;9.63;;;5.25;;
10645;SDS011;5371;49.782;9.932;2022-11-15T14:15:54;11.10;;;5.10;;
10645;SDS011;5371;49.782;9.932;2022-11-15T14:18:41;7.18;;;5.45;;
10645;SDS011;5371;49.782;9.932;2022-11-15T14:21:10;10.55;;;5.38;;
10645;SDS011;5371;49.782;9.932;2022-11-15T14:23:38;7.35;;;5.63;;
10645;SDS011;5371;49.782;9.932;2022-11-15T14:26:05;10.05;;;5.80;;
10645;SDS011;5371;49.782;9.932;2022-11-15T14:28:33;7.15;;;5.40;;
10645;SDS011;5371;49.782;9.932;2022-11-15T14:31:07;6.40;;;5.68;;
10645;SDS011;5371;49.782;9.932;2022-11-15T14:33:39;7.43;;;5.60;;
10645;SDS011;5371;49.782;9.932;2022-11-15T14:36:10;9.07;;;6.10;;
10645;SDS011;5371;49.782;9.932;2022-11-15T14:38:38;9.77;;;5.78;;
10645;SDS011;5371;49.782;9.932;2022-11-15T14:41:08;8.40;;;5.47;;
10645;SDS011;5371;49.782;9.932;2022-11-15T14:43:41;10.63;;;6.38;;
10645;SDS011;5371;49.782;9.932;2022-11-15T14:46:10;7.82;;;5.95;;
10645;SDS011;5371;49.782;9.932;2022-11-15T14:48:37;8.93;;;6.30;;
10645;SDS011;5371;49.782;9.932;2022-11-15T14:51:08;11.50;;;5.43;;
10645;SDS011;5371;49.782;9.932;2022-11-15T14:53:38;11.95;;;5.95;;
10645;SDS011;5371;49.782;9.932;2022-11-15T14:56:06;10.50;;;6.25;;
10645;SDS011;5371;49.782;9.932;2022-11-15T14:58:33;11.20;;;6.70;;
10645;SDS011;5371;49.782;9.932;2022-11-15T15:01:01;10.05;;;6.80;;
10645;SDS011;5371;49.782;9.932;2022-11-15T15:03:30;17.33;;;7.28;;
10645;SDS011;5371;49.782;9.932;2022-11-15T15:05:57;10.85;;;5.88;;
10645;SDS011;5371;49.782;9.932;2022-11-15T15:08:24;11.48;;;6.50;;
10645;SDS011;5371;49.782;9.932;2022-11-15T15:10:50;10.65;;;6.05;;
10645;SDS011;5371;49.782;9.932;2022-11-15T15:13:18;10.43;;;5.95;;
10645;SDS011;5371;49.782;9.932;2022-11-15T15:15:47;10.65;;;6.45;;
10645;SDS011;5371;49.782;9.932;2022-11-15T15:18:15;11.13;;;6.20;;
10645;SDS011;5371;49.782;9.932;2022-11-15T15:20:45;9.55;;;6.68;;
10645;SDS011;5371;49.782;9.932;2022-11-15T15:23:20;9.27;;;5.55;;
10645;SDS011;5371;49.782;9.932;2022-11-15T15:25:48;11.38;;;6.65;;
10645;SDS011;5371;49.782;9.932;2022-11-15T15:28:15;13.70;;;6.53;;
10645;SDS011;5371;49.782;9.932;2022-11-15T15:30:42;8.00;;;5.80;;
10645;SDS011;5371;49.782;9.932;2022-11-15T15:33:09;8.05;;;5.70;;
10645;SDS011;5371;49.782;9.932;2022-11-15T15:35:36;7.95;;;6.43;;
10645;SDS011;5371;49.782;9.932;2022-11-15T15:38:05;11.30;;;7.18;;
10645;SDS011;5371;49.782;9.932;2022-11-15T15:40:32;9.57;;;6.15;;
10645;SDS011;5371;49.782;9.932;2022-11-15T15:42:59;12.20;;;6.50;;
10645;SDS011;5371;49.782;9.932;2022-11-15T15:45:26;9.80;;;6.13;;
10645;SDS011;5371;49.782;9.932;2022-11-15T15:47:54;10.15;;;6.05;;
10645;SDS011;5371;49.782;9.932;2022-11-15T15:50:23;9.48;;;5.85;;
10645;SDS011;5371;49.782;9.932;2022-11-15T15:52:52;11.18;;;6.18;;
10645;SDS011;5371;49.782;9.932;2022-11-15T15:55:22;9.02;;;6.40;;
10645;SDS011;5371;49.782;9.932;2022-11-15T15:57:50;8.27;;;5.90;;
10645;SDS011;5371;49.782;9.932;2022-11-15T16:00:17;9.70;;;5.93;;
10645;SDS011;5371;49.782;9.932;2022-11-15T16:02:46;15.35;;;6.80;;
10645;SDS011;5371;49.782;9.932;2022-11-15T16:05:13;10.82;;;6.75;;
10645;SDS011;5371;49.782;9.932;2022-11-15T16:07:40;14.35;;;7.25;;
10645;SDS011;5371;49.782;9.932;2022-11-15T16:10:15;10.77;;;7.55;;
10645;SDS011;5371;49.782;9.932;2022-11-15T16:12:45;14.05;;;6.95;;
10645;SDS011;5371;49.782;9.932;2022-11-15T16:15:13;16.65;;;6.90;;
10645;SDS011;5371;49.782;9.932;2022-11-15T16:17:40;9.95;;;6.30;;
10645;SDS011;5371;49.782;9.932;2022-11-15T16:20:15;14.15;;;7.30;;
10645;SDS011;5371;49.782;9.932;2022-11-15T16:22:58;12.73;;;6.90;;
10645;SDS011;5371;49.782;9.932;2022-11-15T16:25:26;12.25;;;7.60;;
10645;SDS011;5371;49.782;9.932;2022-11-15T16:27:54;10.85;;;6.78;;
10645;SDS011;5371;49.782;9.932;2022-11-15T16:30:21;10.48;;;7.25;;
10645;SDS011;5371;49.782;9.932;2022-11-15T16:32:49;14.40;;;7.05;;
10645;SDS011;5371;49.782;9.932;2022-11-15T16:35:16;10.32;;;6.47;;
10645;SDS011;5371;49.782;9.932;2022-11-15T16:37:44;9.93;;;6.18;;
10645;SDS011;5371;49.782;9.932;2022-11-15T16:40:17;9.57;;;6.68;;
10645;SDS011;5371;49.782;9.932;2022-11-15T16:42:49;11.75;;;6.63;;
10645;SDS011;5371;49.782;9.932;2022-11-15T16:45:17;14.90;;;6.53;;
10645;SDS011;5371;49.782;9.932;2022-11-15T16:47:44;10.68;;;6.40;;
10645;SDS011;5371;49.782;9.932;2022-11-15T16:50:14;10.85;;;6.93;;
10645;SDS011;5371;49.782;9.932;2022-11-15T16:52:49;11.77;;;7.00;;
10645;SDS011;5371;49.782;9.932;2022-11-15T16:55:19;14.40;;;7.07;;
10645;SDS011;5371;49.782;9.932;2022-11-15T16:57:46;13.55;;;7.00;;
10645;SDS011;5371;49.782;9.932;2022-11-15T17:00:14;12.57;;;7.32;;
10645;SDS011;5371;49.782;9.932;2022-11-15T17:02:43;20.30;;;10.75;;